sensor_id;sensor_type;location;lat;lon;timestamp;P1;durP1;ratioP1;P2;durP2;ratioP2
68108;SDS011;54893;49.864;19.084;2023-04-03T00:04:39;27.80;;;12.07;;
68108;SDS011;54893;49.864;19.084;2023-04-03T00:09:40;25.37;;;11.43;;
68108;SDS011;54893;49.864;19.084;2023-04-03T00:14:40;38.47;;;13.70;;
68108;SDS011;54893;49.864;19.084;2023-04-03T00:19:41;22.00;;;6.87;;
68108;SDS011;54893;49.864;19.084;2023-04-03T00:24:41;79.47;;;28.38;;
68108;SDS011;54893;49.864;19.084;2023-04-03T00:29:42;52.73;;;19.53;;
68108;SDS011;54893;49.864;19.084;2023-04-03T00:34:42;27.07;;;12.47;;
68108;SDS011;54893;49.864;19.084;2023-04-03T00:39:42;28.50;;;10.50;;
68108;SDS011;54893;49.864;19.084;2023-04-03T00:49:46;34.33;;;18.25;;
68108;SDS011;54893;49.864;19.084;2023-04-03T00:54:47;32.27;;;12.07;;
68108;SDS011;54893;49.864;19.084;2023-04-03T00:59:50;35.15;;;15.77;;
68108;SDS011;54893;49.864;19.084;2023-04-03T01:04:54;36.03;;;15.63;;
68108;SDS011;54893;49.864;19.084;2023-04-03T01:09:56;25.93;;;9.83;;
68108;SDS011;54893;49.864;19.084;2023-04-03T01:14:59;32.85;;;12.68;;
68108;SDS011;54893;49.864;19.084;2023-04-03T01:25:33;42.97;;;15.18;;
68108;SDS011;54893;49.864;19.084;2023-04-03T01:30:36;27.48;;;13.77;;
68108;SDS011;54893;49.864;19.084;2023-04-03T01:35:46;25.15;;;10.15;;
68108;SDS011;54893;49.864;19.084;2023-04-03T01:40:47;25.90;;;9.50;;
68108;SDS011;54893;49.864;19.084;2023-04-03T01:45:47;28.67;;;10.67;;
68108;SDS011;54893;49.864;19.084;2023-04-03T01:50:49;23.70;;;10.05;;
68108;SDS011;54893;49.864;19.084;2023-04-03T01:55:49;27.57;;;10.67;;
68108;SDS011;54893;49.864;19.084;2023-04-03T02:00:50;17.50;;;7.23;;
68108;SDS011;54893;49.864;19.084;2023-04-03T02:05:51;21.77;;;9.27;;
68108;SDS011;54893;49.864;19.084;2023-04-03T02:10:51;21.90;;;8.50;;
68108;SDS011;54893;49.864;19.084;2023-04-03T02:15:52;26.77;;;11.65;;
68108;SDS011;54893;49.864;19.084;2023-04-03T02:20:52;29.73;;;11.43;;
68108;SDS011;54893;49.864;19.084;2023-04-03T02:25:52;69.47;;;16.17;;
68108;SDS011;54893;49.864;19.084;2023-04-03T02:30:53;44.00;;;12.33;;
68108;SDS011;54893;49.864;19.084;2023-04-03T02:35:54;24.40;;;8.30;;
68108;SDS011;54893;49.864;19.084;2023-04-03T02:41:02;17.65;;;7.82;;
68108;SDS011;54893;49.864;19.084;2023-04-03T02:46:06;36.75;;;15.80;;
68108;SDS011;54893;49.864;19.084;2023-04-03T02:51:07;21.40;;;7.67;;
68108;SDS011;54893;49.864;19.084;2023-04-03T02:56:07;24.13;;;9.87;;
68108;SDS011;54893;49.864;19.084;2023-04-03T03:01:08;25.23;;;11.60;;
68108;SDS011;54893;49.864;19.084;2023-04-03T03:06:10;22.13;;;10.47;;
68108;SDS011;54893;49.864;19.084;2023-04-03T03:11:12;20.27;;;9.60;;
68108;SDS011;54893;49.864;19.084;2023-04-03T03:16:12;23.53;;;10.00;;
68108;SDS011;54893;49.864;19.084;2023-04-03T03:21:13;25.93;;;9.50;;
68108;SDS011;54893;49.864;19.084;2023-04-03T03:26:14;27.57;;;11.87;;
68108;SDS011;54893;49.864;19.084;2023-04-03T03:31:14;18.30;;;8.47;;
68108;SDS011;54893;49.864;19.084;2023-04-03T03:36:15;27.35;;;10.88;;
68108;SDS011;54893;49.864;19.084;2023-04-03T03:41:15;25.47;;;13.37;;
68108;SDS011;54893;49.864;19.084;2023-04-03T03:46:16;24.25;;;10.70;;
68108;SDS011;54893;49.864;19.084;2023-04-03T03:51:16;25.23;;;12.00;;
68108;SDS011;54893;49.864;19.084;2023-04-03T03:56:16;19.73;;;10.18;;
68108;SDS011;54893;49.864;19.084;2023-04-03T04:01:17;23.17;;;10.10;;
68108;SDS011;54893;49.864;19.084;2023-04-03T04:06:17;16.38;;;8.55;;
68108;SDS011;54893;49.864;19.084;2023-04-03T04:11:18;22.70;;;12.03;;
68108;SDS011;54893;49.864;19.084;2023-04-03T04:16:18;24.77;;;14.03;;
68108;SDS011;54893;49.864;19.084;2023-04-03T04:21:19;24.13;;;9.63;;
68108;SDS011;54893;49.864;19.084;2023-04-03T04:26:19;19.07;;;7.23;;
68108;SDS011;54893;49.864;19.084;2023-04-03T04:31:21;24.87;;;10.37;;
68108;SDS011;54893;49.864;19.084;2023-04-03T04:36:21;18.53;;;7.53;;
68108;SDS011;54893;49.864;19.084;2023-04-03T04:41:21;17.27;;;7.20;;
68108;SDS011;54893;49.864;19.084;2023-04-03T04:46:22;15.82;;;6.15;;
68108;SDS011;54893;49.864;19.084;2023-04-03T04:51:23;18.07;;;6.63;;
68108;SDS011;54893;49.864;19.084;2023-04-03T04:56:23;13.87;;;5.47;;
68108;SDS011;54893;49.864;19.084;2023-04-03T05:01:25;17.92;;;6.85;;
68108;SDS011;54893;49.864;19.084;2023-04-03T05:06:25;23.73;;;9.63;;
68108;SDS011;54893;49.864;19.084;2023-04-03T05:11:26;24.05;;;10.00;;
68108;SDS011;54893;49.864;19.084;2023-04-03T05:16:26;21.40;;;7.95;;
68108;SDS011;54893;49.864;19.084;2023-04-03T05:21:28;25.38;;;11.05;;
68108;SDS011;54893;49.864;19.084;2023-04-03T05:26:31;30.52;;;13.18;;
68108;SDS011;54893;49.864;19.084;2023-04-03T05:31:32;30.17;;;11.63;;
68108;SDS011;54893;49.864;19.084;2023-04-03T05:36:32;24.63;;;11.33;;
68108;SDS011;54893;49.864;19.084;2023-04-03T05:41:33;29.23;;;11.53;;
68108;SDS011;54893;49.864;19.084;2023-04-03T05:46:33;27.97;;;11.47;;
68108;SDS011;54893;49.864;19.084;2023-04-03T05:51:34;25.17;;;10.07;;
68108;SDS011;54893;49.864;19.084;2023-04-03T05:56:35;22.35;;;10.07;;
68108;SDS011;54893;49.864;19.084;2023-04-03T06:01:36;15.87;;;6.40;;
68108;SDS011;54893;49.864;19.084;2023-04-03T06:06:44;19.10;;;7.03;;
68108;SDS011;54893;49.864;19.084;2023-04-03T06:11:45;18.13;;;8.23;;
68108;SDS011;54893;49.864;19.084;2023-04-03T06:16:47;20.53;;;9.53;;
68108;SDS011;54893;49.864;19.084;2023-04-03T06:21:47;20.67;;;11.60;;
68108;SDS011;54893;49.864;19.084;2023-04-03T06:26:47;16.67;;;6.20;;
68108;SDS011;54893;49.864;19.084;2023-04-03T06:31:49;16.83;;;7.18;;
68108;SDS011;54893;49.864;19.084;2023-04-03T06:36:50;17.05;;;6.85;;
68108;SDS011;54893;49.864;19.084;2023-04-03T06:41:50;20.27;;;7.10;;
68108;SDS011;54893;49.864;19.084;2023-04-03T06:46:51;22.27;;;6.23;;
68108;SDS011;54893;49.864;19.084;2023-04-03T06:51:51;22.07;;;7.63;;
68108;SDS011;54893;49.864;19.084;2023-04-03T06:56:52;26.03;;;9.97;;
68108;SDS011;54893;49.864;19.084;2023-04-03T07:01:52;26.87;;;9.60;;
68108;SDS011;54893;49.864;19.084;2023-04-03T07:06:53;19.77;;;7.20;;
68108;SDS011;54893;49.864;19.084;2023-04-03T07:11:53;11.17;;;4.10;;
68108;SDS011;54893;49.864;19.084;2023-04-03T07:16:53;13.93;;;5.00;;
68108;SDS011;54893;49.864;19.084;2023-04-03T07:21:54;9.60;;;4.03;;
68108;SDS011;54893;49.864;19.084;2023-04-03T07:26:54;12.80;;;4.63;;
68108;SDS011;54893;49.864;19.084;2023-04-03T07:31:55;10.63;;;3.80;;
68108;SDS011;54893;49.864;19.084;2023-04-03T07:36:56;11.80;;;4.28;;
68108;SDS011;54893;49.864;19.084;2023-04-03T07:41:56;9.50;;;3.60;;
68108;SDS011;54893;49.864;19.084;2023-04-03T07:46:56;13.27;;;4.60;;
68108;SDS011;54893;49.864;19.084;2023-04-03T07:51:57;14.23;;;4.93;;
68108;SDS011;54893;49.864;19.084;2023-04-03T07:56:58;12.73;;;4.63;;
68108;SDS011;54893;49.864;19.084;2023-04-03T08:01:58;17.27;;;6.23;;
68108;SDS011;54893;49.864;19.084;2023-04-03T08:06:59;16.10;;;5.47;;
68108;SDS011;54893;49.864;19.084;2023-04-03T08:11:59;18.93;;;7.57;;
68108;SDS011;54893;49.864;19.084;2023-04-03T08:17:01;10.70;;;4.20;;
68108;SDS011;54893;49.864;19.084;2023-04-03T08:22:02;10.95;;;3.60;;
68108;SDS011;54893;49.864;19.084;2023-04-03T08:27:03;8.53;;;2.57;;
68108;SDS011;54893;49.864;19.084;2023-04-03T08:32:06;9.47;;;2.93;;
68108;SDS011;54893;49.864;19.084;2023-04-03T08:37:07;10.77;;;3.60;;
68108;SDS011;54893;49.864;19.084;2023-04-03T08:42:14;11.60;;;3.30;;
68108;SDS011;54893;49.864;19.084;2023-04-03T08:47:25;11.63;;;3.95;;
68108;SDS011;54893;49.864;19.084;2023-04-03T08:52:55;16.10;;;4.45;;
68108;SDS011;54893;49.864;19.084;2023-04-03T08:57:59;8.63;;;3.23;;
68108;SDS011;54893;49.864;19.084;2023-04-03T09:03:02;10.82;;;4.45;;
68108;SDS011;54893;49.864;19.084;2023-04-03T09:18:28;21.30;;;6.35;;
68108;SDS011;54893;49.864;19.084;2023-04-03T09:23:33;19.33;;;6.93;;
68108;SDS011;54893;49.864;19.084;2023-04-03T09:28:42;11.90;;;3.70;;
68108;SDS011;54893;49.864;19.084;2023-04-03T09:33:44;14.27;;;4.65;;
68108;SDS011;54893;49.864;19.084;2023-04-03T09:38:45;8.20;;;2.70;;
68108;SDS011;54893;49.864;19.084;2023-04-03T09:43:52;6.53;;;2.17;;
68108;SDS011;54893;49.864;19.084;2023-04-03T09:48:58;9.98;;;3.42;;
68108;SDS011;54893;49.864;19.084;2023-04-03T09:54:00;14.25;;;4.78;;
68108;SDS011;54893;49.864;19.084;2023-04-03T09:59:27;10.60;;;3.35;;
68108;SDS011;54893;49.864;19.084;2023-04-03T10:04:39;30.90;;;9.73;;
68108;SDS011;54893;49.864;19.084;2023-04-03T10:09:40;17.95;;;5.10;;
68108;SDS011;54893;49.864;19.084;2023-04-03T10:14:56;11.07;;;4.20;;
68108;SDS011;54893;49.864;19.084;2023-04-03T10:36:19;6.20;;;2.40;;
68108;SDS011;54893;49.864;19.084;2023-04-03T10:46:52;10.13;;;3.87;;
68108;SDS011;54893;49.864;19.084;2023-04-03T10:52:14;9.90;;;3.33;;
68108;SDS011;54893;49.864;19.084;2023-04-03T10:57:22;17.20;;;4.55;;
68108;SDS011;54893;49.864;19.084;2023-04-03T11:02:29;13.52;;;4.03;;
68108;SDS011;54893;49.864;19.084;2023-04-03T11:07:33;8.77;;;3.75;;
68108;SDS011;54893;49.864;19.084;2023-04-03T11:12:42;9.83;;;2.90;;
68108;SDS011;54893;49.864;19.084;2023-04-03T11:17:55;7.35;;;2.97;;
68108;SDS011;54893;49.864;19.084;2023-04-03T11:23:08;7.28;;;2.45;;
68108;SDS011;54893;49.864;19.084;2023-04-03T11:28:19;10.00;;;4.10;;
68108;SDS011;54893;49.864;19.084;2023-04-03T11:38:30;3.95;;;1.55;;
68108;SDS011;54893;49.864;19.084;2023-04-03T11:43:40;3.67;;;1.27;;
68108;SDS011;54893;49.864;19.084;2023-04-03T11:48:43;6.65;;;2.13;;
68108;SDS011;54893;49.864;19.084;2023-04-03T11:53:45;8.85;;;2.65;;
68108;SDS011;54893;49.864;19.084;2023-04-03T12:04:06;7.68;;;2.80;;
68108;SDS011;54893;49.864;19.084;2023-04-03T12:09:24;8.77;;;2.13;;
68108;SDS011;54893;49.864;19.084;2023-04-03T12:14:27;8.40;;;3.20;;
68108;SDS011;54893;49.864;19.084;2023-04-03T12:19:29;7.93;;;2.40;;
68108;SDS011;54893;49.864;19.084;2023-04-03T12:24:33;6.63;;;2.38;;
68108;SDS011;54893;49.864;19.084;2023-04-03T12:29:45;4.93;;;1.80;;
68108;SDS011;54893;49.864;19.084;2023-04-03T12:40:06;6.10;;;2.10;;
68108;SDS011;54893;49.864;19.084;2023-04-03T12:45:22;6.70;;;1.70;;
68108;SDS011;54893;49.864;19.084;2023-04-03T12:50:27;4.38;;;1.80;;
68108;SDS011;54893;49.864;19.084;2023-04-03T12:55:30;6.88;;;2.25;;
68108;SDS011;54893;49.864;19.084;2023-04-03T13:00:32;4.83;;;1.77;;
68108;SDS011;54893;49.864;19.084;2023-04-03T13:05:34;6.83;;;2.40;;
68108;SDS011;54893;49.864;19.084;2023-04-03T13:10:43;8.13;;;2.38;;
68108;SDS011;54893;49.864;19.084;2023-04-03T13:15:53;6.03;;;2.10;;
68108;SDS011;54893;49.864;19.084;2023-04-03T13:20:57;7.68;;;2.53;;
68108;SDS011;54893;49.864;19.084;2023-04-03T13:26:01;7.90;;;3.50;;
68108;SDS011;54893;49.864;19.084;2023-04-03T13:36:21;6.32;;;2.40;;
68108;SDS011;54893;49.864;19.084;2023-04-03T13:41:32;8.73;;;4.03;;
68108;SDS011;54893;49.864;19.084;2023-04-03T13:46:35;25.55;;;8.45;;
68108;SDS011;54893;49.864;19.084;2023-04-03T13:51:37;11.70;;;4.40;;
68108;SDS011;54893;49.864;19.084;2023-04-03T13:56:39;46.23;;;8.83;;
68108;SDS011;54893;49.864;19.084;2023-04-03T14:06:50;46.30;;;13.88;;
68108;SDS011;54893;49.864;19.084;2023-04-03T14:11:55;44.90;;;8.47;;
68108;SDS011;54893;49.864;19.084;2023-04-03T14:17:01;27.88;;;9.55;;
68108;SDS011;54893;49.864;19.084;2023-04-03T14:22:11;163.50;;;50.47;;
68108;SDS011;54893;49.864;19.084;2023-04-03T14:27:36;123.75;;;36.85;;
68108;SDS011;54893;49.864;19.084;2023-04-03T14:32:37;72.28;;;16.25;;
68108;SDS011;54893;49.864;19.084;2023-04-03T14:37:38;23.67;;;5.80;;
68108;SDS011;54893;49.864;19.084;2023-04-03T14:42:39;180.47;;;40.97;;
68108;SDS011;54893;49.864;19.084;2023-04-03T14:47:44;315.77;;;100.83;;
68108;SDS011;54893;49.864;19.084;2023-04-03T14:52:49;207.10;;;46.65;;
68108;SDS011;54893;49.864;19.084;2023-04-03T14:57:51;189.53;;;33.57;;
68108;SDS011;54893;49.864;19.084;2023-04-03T15:02:53;60.50;;;13.02;;
68108;SDS011;54893;49.864;19.084;2023-04-03T15:07:54;153.47;;;31.40;;
68108;SDS011;54893;49.864;19.084;2023-04-03T15:12:56;101.25;;;23.42;;
68108;SDS011;54893;49.864;19.084;2023-04-03T15:17:57;169.33;;;46.23;;
68108;SDS011;54893;49.864;19.084;2023-04-03T15:22:57;106.93;;;28.67;;
68108;SDS011;54893;49.864;19.084;2023-04-03T15:28:01;78.78;;;20.45;;
68108;SDS011;54893;49.864;19.084;2023-04-03T15:33:01;32.10;;;9.00;;
68108;SDS011;54893;49.864;19.084;2023-04-03T15:38:01;60.77;;;16.73;;
68108;SDS011;54893;49.864;19.084;2023-04-03T15:43:02;25.73;;;7.47;;
68108;SDS011;54893;49.864;19.084;2023-04-03T15:48:03;51.63;;;11.50;;
68108;SDS011;54893;49.864;19.084;2023-04-03T15:53:05;49.38;;;9.95;;
68108;SDS011;54893;49.864;19.084;2023-04-03T15:58:05;81.33;;;13.87;;
68108;SDS011;54893;49.864;19.084;2023-04-03T16:03:08;72.67;;;20.67;;
68108;SDS011;54893;49.864;19.084;2023-04-03T16:08:15;25.23;;;5.13;;
68108;SDS011;54893;49.864;19.084;2023-04-03T16:13:17;117.45;;;27.25;;
68108;SDS011;54893;49.864;19.084;2023-04-03T16:18:18;81.93;;;16.30;;
68108;SDS011;54893;49.864;19.084;2023-04-03T16:23:18;28.47;;;7.53;;
68108;SDS011;54893;49.864;19.084;2023-04-03T16:28:19;41.28;;;9.43;;
68108;SDS011;54893;49.864;19.084;2023-04-03T16:33:19;42.53;;;8.32;;
68108;SDS011;54893;49.864;19.084;2023-04-03T16:38:21;29.38;;;6.53;;
68108;SDS011;54893;49.864;19.084;2023-04-03T16:43:22;31.43;;;6.53;;
68108;SDS011;54893;49.864;19.084;2023-04-03T16:48:22;31.90;;;6.03;;
68108;SDS011;54893;49.864;19.084;2023-04-03T16:53:24;41.67;;;7.90;;
68108;SDS011;54893;49.864;19.084;2023-04-03T16:58:25;26.10;;;5.72;;
68108;SDS011;54893;49.864;19.084;2023-04-03T17:03:25;31.97;;;6.03;;
68108;SDS011;54893;49.864;19.084;2023-04-03T17:08:27;49.92;;;9.70;;
68108;SDS011;54893;49.864;19.084;2023-04-03T17:13:28;36.33;;;6.60;;
68108;SDS011;54893;49.864;19.084;2023-04-03T17:18:32;17.40;;;5.57;;
68108;SDS011;54893;49.864;19.084;2023-04-03T17:23:33;83.10;;;24.77;;
68108;SDS011;54893;49.864;19.084;2023-04-03T17:28:36;41.00;;;17.53;;
68108;SDS011;54893;49.864;19.084;2023-04-03T17:33:36;85.63;;;20.07;;
68108;SDS011;54893;49.864;19.084;2023-04-03T17:38:36;53.37;;;10.93;;
68108;SDS011;54893;49.864;19.084;2023-04-03T17:43:37;45.07;;;8.93;;
68108;SDS011;54893;49.864;19.084;2023-04-03T17:48:38;36.87;;;10.93;;
68108;SDS011;54893;49.864;19.084;2023-04-03T17:53:40;20.17;;;6.53;;
68108;SDS011;54893;49.864;19.084;2023-04-03T17:58:41;22.48;;;7.18;;
68108;SDS011;54893;49.864;19.084;2023-04-03T18:03:41;26.77;;;9.27;;
68108;SDS011;54893;49.864;19.084;2023-04-03T18:08:44;24.23;;;9.37;;
68108;SDS011;54893;49.864;19.084;2023-04-03T18:13:58;43.38;;;12.05;;
68108;SDS011;54893;49.864;19.084;2023-04-03T18:19:01;72.13;;;13.25;;
68108;SDS011;54893;49.864;19.084;2023-04-03T18:24:01;107.78;;;18.63;;
68108;SDS011;54893;49.864;19.084;2023-04-03T18:29:04;92.07;;;18.10;;
68108;SDS011;54893;49.864;19.084;2023-04-03T18:34:07;62.05;;;13.60;;
68108;SDS011;54893;49.864;19.084;2023-04-03T18:39:07;84.13;;;18.00;;
68108;SDS011;54893;49.864;19.084;2023-04-03T18:44:09;66.30;;;12.70;;
68108;SDS011;54893;49.864;19.084;2023-04-03T18:49:12;101.57;;;17.40;;
68108;SDS011;54893;49.864;19.084;2023-04-03T18:54:14;79.97;;;14.03;;
68108;SDS011;54893;49.864;19.084;2023-04-03T18:59:15;79.97;;;15.38;;
68108;SDS011;54893;49.864;19.084;2023-04-03T19:04:16;49.47;;;10.20;;
68108;SDS011;54893;49.864;19.084;2023-04-03T19:09:16;40.33;;;12.63;;
68108;SDS011;54893;49.864;19.084;2023-04-03T19:14:17;49.27;;;9.87;;
68108;SDS011;54893;49.864;19.084;2023-04-03T19:19:17;43.57;;;12.53;;
68108;SDS011;54893;49.864;19.084;2023-04-03T19:24:18;66.17;;;10.67;;
68108;SDS011;54893;49.864;19.084;2023-04-03T19:29:18;55.57;;;10.43;;
68108;SDS011;54893;49.864;19.084;2023-04-03T19:34:18;17.52;;;5.82;;
68108;SDS011;54893;49.864;19.084;2023-04-03T19:39:19;42.17;;;9.13;;
68108;SDS011;54893;49.864;19.084;2023-04-03T19:44:19;56.03;;;11.17;;
68108;SDS011;54893;49.864;19.084;2023-04-03T19:49:20;62.63;;;12.80;;
68108;SDS011;54893;49.864;19.084;2023-04-03T19:54:20;37.87;;;8.27;;
68108;SDS011;54893;49.864;19.084;2023-04-03T19:59:22;26.83;;;7.90;;
68108;SDS011;54893;49.864;19.084;2023-04-03T20:04:22;44.20;;;10.47;;
68108;SDS011;54893;49.864;19.084;2023-04-03T20:09:22;54.30;;;11.73;;
68108;SDS011;54893;49.864;19.084;2023-04-03T20:14:23;54.70;;;12.27;;
68108;SDS011;54893;49.864;19.084;2023-04-03T20:19:23;74.87;;;15.97;;
68108;SDS011;54893;49.864;19.084;2023-04-03T20:24:25;59.88;;;12.90;;
68108;SDS011;54893;49.864;19.084;2023-04-03T20:29:27;24.02;;;7.45;;
68108;SDS011;54893;49.864;19.084;2023-04-03T20:34:28;40.37;;;10.70;;
68108;SDS011;54893;49.864;19.084;2023-04-03T20:39:28;32.33;;;9.30;;
68108;SDS011;54893;49.864;19.084;2023-04-03T20:44:29;31.20;;;9.10;;
68108;SDS011;54893;49.864;19.084;2023-04-03T20:49:30;262.80;;;77.03;;
68108;SDS011;54893;49.864;19.084;2023-04-03T20:54:31;209.93;;;55.90;;
68108;SDS011;54893;49.864;19.084;2023-04-03T20:59:32;206.57;;;42.97;;
68108;SDS011;54893;49.864;19.084;2023-04-03T21:04:39;145.10;;;26.40;;
68108;SDS011;54893;49.864;19.084;2023-04-03T21:20:51;85.50;;;18.45;;
68108;SDS011;54893;49.864;19.084;2023-04-03T21:25:52;87.40;;;19.30;;
68108;SDS011;54893;49.864;19.084;2023-04-03T21:30:52;65.50;;;15.53;;
68108;SDS011;54893;49.864;19.084;2023-04-03T21:35:52;39.40;;;9.83;;
68108;SDS011;54893;49.864;19.084;2023-04-03T21:40:56;31.95;;;9.30;;
68108;SDS011;54893;49.864;19.084;2023-04-03T21:45:57;24.87;;;8.43;;
68108;SDS011;54893;49.864;19.084;2023-04-03T21:51:04;26.63;;;8.55;;
68108;SDS011;54893;49.864;19.084;2023-04-03T21:56:05;37.23;;;10.97;;
68108;SDS011;54893;49.864;19.084;2023-04-03T22:01:09;23.23;;;7.60;;
68108;SDS011;54893;49.864;19.084;2023-04-03T22:06:11;24.13;;;9.57;;
68108;SDS011;54893;49.864;19.084;2023-04-03T22:11:13;24.30;;;8.63;;
68108;SDS011;54893;49.864;19.084;2023-04-03T22:16:14;22.30;;;7.67;;
68108;SDS011;54893;49.864;19.084;2023-04-03T22:21:15;22.55;;;7.03;;
68108;SDS011;54893;49.864;19.084;2023-04-03T22:26:15;18.97;;;7.77;;
68108;SDS011;54893;49.864;19.084;2023-04-03T22:31:16;13.13;;;4.60;;
68108;SDS011;54893;49.864;19.084;2023-04-03T22:36:16;25.47;;;6.93;;
68108;SDS011;54893;49.864;19.084;2023-04-03T22:41:17;24.53;;;9.90;;
68108;SDS011;54893;49.864;19.084;2023-04-03T22:46:17;24.77;;;8.70;;
68108;SDS011;54893;49.864;19.084;2023-04-03T22:51:17;25.40;;;9.53;;
68108;SDS011;54893;49.864;19.084;2023-04-03T22:56:18;23.15;;;8.77;;
68108;SDS011;54893;49.864;19.084;2023-04-03T23:01:18;19.70;;;8.27;;
68108;SDS011;54893;49.864;19.084;2023-04-03T23:06:19;23.43;;;9.00;;
68108;SDS011;54893;49.864;19.084;2023-04-03T23:11:19;29.17;;;9.37;;
68108;SDS011;54893;49.864;19.084;2023-04-03T23:16:20;26.93;;;9.17;;
68108;SDS011;54893;49.864;19.084;2023-04-03T23:21:20;15.83;;;6.57;;
68108;SDS011;54893;49.864;19.084;2023-04-03T23:26:21;25.15;;;10.80;;
68108;SDS011;54893;49.864;19.084;2023-04-03T23:31:24;26.67;;;9.37;;
68108;SDS011;54893;49.864;19.084;2023-04-03T23:36:24;22.47;;;8.00;;
68108;SDS011;54893;49.864;19.084;2023-04-03T23:41:25;19.90;;;7.50;;
68108;SDS011;54893;49.864;19.084;2023-04-03T23:46:25;24.67;;;9.87;;
68108;SDS011;54893;49.864;19.084;2023-04-03T23:51:26;26.60;;;11.27;;
68108;SDS011;54893;49.864;19.084;2023-04-03T23:56:26;20.07;;;6.60;;
